VMC weather

Villas Mar de Cortez Airport
Ensenada, Baja California, Mexico

Public forecast

Using degrees Celsius for public forecast. Weather courtesy of forecast.io.

METAR (pilot weather report)

Closest report is (Old) Puerto PeƱasco Airport, 104.2 nm (193.0 km) NNE. Retrieved UTC (0 seconds ago):

TAF (pilot weather forecast)

Forecast is more than 12 hours old.

Closest forecast is General Ignacio P. Garcia International Airport, 180.3 nm (333.9 km) ESE. Retrieved 2019/05/25 18:49 UTC (22 hours ago):

TAF MMHO 251642Z 2518/2618 20010KT P6SM SKC TEMPO 2520/2524 20016KT FM260300 25006KT P6SM SKC FM261600 23010KT P6SM SKC